Time;durP1;ratioP1;P1;durP2;ratioP2;P2;SDS_P1;SDS_P2;PMS_P1;PMS_P2;Temp;Humidity;BMP_temperature;BMP_pressure;BME280_temperature;BME280_humidity;BME280_pressure;Samples;Min_cycle;Max_cycle;Signal;HPM_P1;HPM_P2
2022/10/27 00:00:44;;;;;;;16.00;9.50;;;13.40;99.90;;;;;;5024619;28;20025;-77
2022/10/27 00:03:11;;;;;;;12.05;9.13;;;13.40;99.90;;;;;;5049181;28;20033;-77
2022/10/27 00:05:38;;;;;;;15.00;9.00;;;13.40;99.90;;;;;;5053785;28;20039;-77
2022/10/27 00:08:04;;;;;;;12.27;8.65;;;13.30;99.90;;;;;;5094906;28;20027;-77
2022/10/27 00:10:30;;;;;;;13.80;8.43;;;13.30;99.90;;;;;;5101522;28;20600;-77
2022/10/27 00:12:56;;;;;;;15.13;8.48;;;13.30;99.90;;;;;;5102919;27;20476;-77
2022/10/27 00:15:22;;;;;;;12.35;8.98;;;13.30;99.90;;;;;;5074508;28;20027;-77
2022/10/27 00:17:47;;;;;;;13.70;8.32;;;13.30;99.90;;;;;;5108534;27;20023;-76
2022/10/27 00:20:13;;;;;;;12.07;9.20;;;13.30;99.90;;;;;;5088163;28;20498;-79
2022/10/27 00:22:39;;;;;;;12.93;9.13;;;13.30;99.90;;;;;;5105157;27;20629;-78
2022/10/27 00:25:05;;;;;;;13.02;9.32;;;13.30;99.90;;;;;;5091283;28;20028;-77
2022/10/27 00:27:31;;;;;;;12.65;9.43;;;13.30;99.90;;;;;;5100063;27;20027;-76
2022/10/27 00:29:57;;;;;;;15.15;10.07;;;13.30;99.90;;;;;;5094617;28;20032;-76
2022/10/27 00:32:23;;;;;;;12.10;8.70;;;13.30;99.90;;;;;;5100872;28;20032;-76
2022/10/27 00:34:48;;;;;;;12.57;8.80;;;13.30;99.90;;;;;;5090556;28;20030;-77
2022/10/27 00:37:14;;;;;;;18.73;9.40;;;13.30;99.90;;;;;;5091943;27;20039;-78
2022/10/27 00:39:40;;;;;;;13.35;8.95;;;13.30;99.90;;;;;;5090369;28;20089;-77
2022/10/27 00:42:05;;;;;;;14.07;9.30;;;13.30;99.90;;;;;;5094985;27;20111;-77
2022/10/27 00:44:42;;;;;;;15.75;9.55;;;13.30;99.90;;;;;;5096535;28;20065;-76
2022/10/27 00:47:24;;;;;;;13.20;8.75;;;13.30;99.90;;;;;;5094359;28;20033;-78
2022/10/27 00:49:54;;;;;;;16.58;9.30;;;13.30;99.90;;;;;;5085771;28;20042;-77
2022/10/27 00:52:27;;;;;;;14.55;8.93;;;13.30;99.90;;;;;;5074608;28;20046;-77
2022/10/27 00:54:57;;;;;;;13.40;9.02;;;13.30;99.90;;;;;;5083070;27;20049;-77
2022/10/27 00:57:24;;;;;;;10.07;7.68;;;13.20;99.90;;;;;;5076518;28;20313;-77
2022/10/27 00:59:49;;;;;;;11.63;8.60;;;13.20;99.90;;;;;;5101788;27;20047;-77
2022/10/27 01:02:15;;;;;;;13.35;8.88;;;13.20;99.90;;;;;;5102618;27;20051;-77
2022/10/27 01:05:01;;;;;;;14.80;9.05;;;13.20;99.90;;;;;;5104264;27;20028;-77
2022/10/27 01:07:27;;;;;;;14.60;8.73;;;13.20;99.90;;;;;;5089032;28;20063;-76
2022/10/27 01:09:53;;;;;;;13.93;8.95;;;13.20;99.90;;;;;;5090893;27;20015;-77
2022/10/27 01:12:19;;;;;;;14.52;9.00;;;13.20;99.90;;;;;;5102548;27;20038;-77
2022/10/27 01:14:45;;;;;;;15.75;8.98;;;13.20;99.90;;;;;;5104718;28;20432;-78
2022/10/27 01:17:23;;;;;;;13.60;8.85;;;13.20;99.90;;;;;;5093230;28;20534;-78
2022/10/27 01:20:22;;;;;;;13.60;9.20;;;13.20;99.90;;;;;;5086934;28;20062;-77
2022/10/27 01:23:16;;;;;;;14.50;10.10;;;13.20;99.90;;;;;;5099385;28;20074;-78
2022/10/27 01:26:31;;;;;;;13.05;8.30;;;13.20;99.90;;;;;;5084440;27;20599;-77
2022/10/27 01:29:38;;;;;;;12.00;9.00;;;13.20;99.90;;;;;;5086639;27;20044;-78
2022/10/27 01:32:23;;;;;;;14.38;9.43;;;13.20;99.90;;;;;;5043019;28;20098;-77
2022/10/27 01:35:07;;;;;;;13.98;8.57;;;13.10;99.90;;;;;;5080166;28;20027;-77
2022/10/27 01:37:40;;;;;;;13.43;8.38;;;13.20;99.90;;;;;;5102417;27;20098;-77
2022/10/27 01:40:22;;;;;;;11.98;8.32;;;13.20;99.90;;;;;;5101296;27;20212;-78
2022/10/27 01:43:09;;;;;;;12.95;8.10;;;13.10;99.90;;;;;;5104131;27;20024;-77
2022/10/27 01:45:38;;;;;;;12.43;9.10;;;13.10;99.90;;;;;;5091416;28;20695;-77
2022/10/27 01:48:06;;;;;;;15.50;9.10;;;13.10;99.90;;;;;;5082978;28;20024;-77
2022/10/27 01:50:35;;;;;;;11.25;7.68;;;13.10;99.90;;;;;;5098285;28;20110;-77
2022/10/27 01:53:04;;;;;;;10.18;8.07;;;13.10;99.90;;;;;;5097605;27;20020;-77
2022/10/27 01:55:29;;;;;;;14.43;8.95;;;13.10;99.90;;;;;;5092175;28;20031;-77
2022/10/27 01:58:18;;;;;;;13.75;8.68;;;13.10;99.90;;;;;;5088722;28;20087;-77
2022/10/27 02:01:26;;;;;;;12.93;9.35;;;13.10;99.90;;;;;;5087747;28;20040;-77
2022/10/27 02:04:00;;;;;;;11.95;9.15;;;13.10;99.90;;;;;;5092023;28;20114;-77
2022/10/27 02:06:41;;;;;;;19.88;9.65;;;13.10;99.90;;;;;;5069629;28;20762;-77
2022/10/27 02:09:06;;;;;;;13.57;9.20;;;13.10;99.90;;;;;;5101641;28;20052;-77
2022/10/27 02:11:34;;;;;;;14.85;8.45;;;13.10;99.90;;;;;;5079831;28;20064;-77
2022/10/27 02:14:00;;;;;;;15.30;9.18;;;13.10;99.90;;;;;;5086429;28;20038;-77
2022/10/27 02:16:33;;;;;;;13.52;9.00;;;13.10;99.90;;;;;;5073118;28;20031;-77
2022/10/27 02:19:09;;;;;;;13.48;9.27;;;13.00;99.90;;;;;;5103231;27;20024;-77
2022/10/27 02:21:36;;;;;;;13.85;9.20;;;13.00;99.90;;;;;;5102040;28;20024;-77
2022/10/27 02:24:03;;;;;;;14.85;9.15;;;13.00;99.90;;;;;;5071387;27;20030;-77
2022/10/27 02:26:42;;;;;;;14.05;9.65;;;13.00;99.90;;;;;;5093482;28;20020;-76
2022/10/27 02:29:17;;;;;;;13.50;9.20;;;13.00;99.90;;;;;;5089075;27;20033;-76
2022/10/27 02:31:48;;;;;;;11.82;8.55;;;13.00;99.90;;;;;;5082339;28;20047;-76
2022/10/27 02:34:14;;;;;;;;;;;13.00;99.90;;;;;;5105876;27;20024;-77
2022/10/27 02:36:40;;;;;;;14.55;8.85;;;13.00;99.90;;;;;;5092295;28;19990;-75
2022/10/27 02:39:06;;;;;;;13.45;9.05;;;13.00;99.90;;;;;;5096023;27;20085;-77
2022/10/27 02:41:31;;;;;;;14.13;9.38;;;13.00;99.90;;;;;;5106139;27;20031;-76
2022/10/27 02:43:57;;;;;;;15.15;8.95;;;13.00;99.90;;;;;;5074605;28;20081;-78
2022/10/27 02:46:24;;;;;;;13.90;8.40;;;13.00;99.90;;;;;;5072015;28;20062;-76
2022/10/27 02:48:49;;;;;;;16.55;9.65;;;13.00;99.90;;;;;;5097337;28;20100;-76
2022/10/27 02:51:15;;;;;;;13.80;9.23;;;13.00;99.90;;;;;;5103688;27;20400;-76
2022/10/27 02:53:41;;;;;;;14.77;9.75;;;13.00;99.90;;;;;;5087581;28;20493;-78
2022/10/27 02:56:07;;;;;;;14.15;8.48;;;12.90;99.90;;;;;;5105647;27;20031;-78
2022/10/27 02:58:34;;;;;;;17.17;8.75;;;12.90;99.90;;;;;;5105486;27;20030;-77
2022/10/27 03:00:59;;;;;;;14.25;8.13;;;12.90;99.90;;;;;;5087870;27;20071;-78
2022/10/27 03:03:26;;;;;;;13.23;8.80;;;12.90;99.90;;;;;;5104055;28;20459;-77
2022/10/27 03:05:52;;;;;;;15.15;8.95;;;12.90;99.90;;;;;;5072815;28;20059;-77
2022/10/27 03:08:18;;;;;;;13.50;9.55;;;12.90;99.90;;;;;;5092815;28;20077;-77
2022/10/27 03:10:44;;;;;;;14.18;8.25;;;12.90;99.90;;;;;;5102681;28;20035;-77
2022/10/27 03:13:10;;;;;;;17.40;9.75;;;12.90;99.90;;;;;;5101908;27;20649;-77
2022/10/27 03:15:36;;;;;;;14.40;8.20;;;12.90;99.90;;;;;;5101228;28;20027;-76
2022/10/27 03:18:03;;;;;;;16.10;9.13;;;12.90;99.90;;;;;;5098631;28;20433;-76
2022/10/27 03:20:29;;;;;;;12.05;7.88;;;12.90;99.90;;;;;;5101550;28;20031;-76
2022/10/27 03:22:54;;;;;;;13.02;8.10;;;12.90;99.90;;;;;;5070474;28;20483;-76
2022/10/27 03:25:20;;;;;;;14.98;8.35;;;12.90;99.90;;;;;;5074677;28;20032;-76
2022/10/27 03:27:46;;;;;;;19.08;9.50;;;12.90;99.90;;;;;;5093512;28;20085;-77
2022/10/27 03:30:14;;;;;;;13.02;8.98;;;12.90;99.90;;;;;;5091395;28;20293;-77
2022/10/27 03:32:43;;;;;;;17.67;8.60;;;12.90;99.90;;;;;;5081184;28;20023;-78
2022/10/27 03:35:09;;;;;;;14.98;7.93;;;12.90;99.90;;;;;;5086169;28;20032;-79
2022/10/27 03:37:35;;;;;;;11.77;8.75;;;12.90;99.90;;;;;;5086884;28;20069;-79
2022/10/27 03:40:01;;;;;;;14.63;8.18;;;12.90;99.90;;;;;;5083372;28;20066;-78
2022/10/27 03:42:27;;;;;;;13.52;8.77;;;12.90;99.90;;;;;;5100822;28;20055;-78
2022/10/27 03:44:52;;;;;;;18.70;9.30;;;12.90;99.90;;;;;;5104328;28;20019;-79
2022/10/27 03:47:18;;;;;;;16.98;9.07;;;12.90;99.90;;;;;;5099137;28;20027;-78
2022/10/27 03:49:44;;;;;;;12.52;8.32;;;12.90;99.90;;;;;;5101617;28;20027;-77
2022/10/27 03:52:09;;;;;;;19.50;9.77;;;12.90;99.90;;;;;;5098430;28;20028;-77
2022/10/27 03:54:35;;;;;;;15.43;7.90;;;12.90;99.90;;;;;;5088117;28;20016;-78
2022/10/27 03:57:01;;;;;;;11.40;8.15;;;12.90;99.90;;;;;;5099045;28;20032;-77
2022/10/27 03:59:26;;;;;;;15.38;9.38;;;12.90;99.90;;;;;;5091837;27;20035;-77
2022/10/27 04:01:52;;;;;;;11.57;8.02;;;12.90;99.90;;;;;;5085890;28;20035;-77
2022/10/27 04:04:20;;;;;;;16.20;9.55;;;12.90;99.90;;;;;;5106789;28;20023;-79
2022/10/27 04:06:45;;;;;;;12.27;7.97;;;12.90;99.90;;;;;;5088440;28;20031;-77
2022/10/27 04:09:11;;;;;;;14.70;9.15;;;12.90;99.90;;;;;;5108164;28;20039;-77
2022/10/27 04:11:37;;;;;;;12.80;8.57;;;12.90;99.90;;;;;;5085109;28;20706;-77
2022/10/27 04:14:02;;;;;;;13.88;7.93;;;12.80;99.90;;;;;;5103286;28;20024;-77
2022/10/27 04:16:28;;;;;;;13.60;8.63;;;12.80;99.90;;;;;;5100336;28;20031;-77
2022/10/27 04:18:54;;;;;;;15.07;8.93;;;12.80;99.90;;;;;;5085427;28;20035;-77
2022/10/27 04:21:19;;;;;;;14.02;9.32;;;12.80;99.90;;;;;;5100881;28;20032;-77
2022/10/27 04:23:47;;;;;;;12.88;8.75;;;12.80;99.90;;;;;;5084954;28;20059;-77
2022/10/27 04:26:13;;;;;;;19.05;9.32;;;12.80;99.90;;;;;;5088583;28;20024;-76
2022/10/27 04:28:38;;;;;;;12.77;8.43;;;12.80;99.90;;;;;;5093345;28;20081;-77
2022/10/27 04:31:04;;;;;;;13.32;9.32;;;12.80;99.90;;;;;;5072848;28;20122;-77
2022/10/27 04:33:31;;;;;;;18.75;9.20;;;12.80;99.90;;;;;;5088559;28;20024;-77
2022/10/27 04:35:58;;;;;;;20.05;8.90;;;12.80;99.90;;;;;;5099623;28;20036;-78
2022/10/27 04:38:24;;;;;;;15.05;9.45;;;12.80;99.90;;;;;;5092741;27;20036;-77
2022/10/27 04:40:49;;;;;;;16.20;9.13;;;12.80;99.90;;;;;;5111076;27;20027;-78
2022/10/27 04:43:15;;;;;;;15.60;9.32;;;12.80;99.90;;;;;;5095871;27;20392;-77
2022/10/27 04:45:41;;;;;;;12.13;8.32;;;12.80;99.90;;;;;;5094379;28;20035;-77
2022/10/27 04:48:07;;;;;;;14.00;8.93;;;12.80;99.90;;;;;;5081604;28;20406;-78
2022/10/27 04:50:32;;;;;;;12.65;7.88;;;12.80;99.90;;;;;;5102324;28;20032;-76
2022/10/27 04:53:02;;;;;;;17.08;9.48;;;12.80;99.90;;;;;;5090292;28;20061;-77
2022/10/27 04:55:30;;;;;;;15.43;9.55;;;12.80;99.90;;;;;;5076577;28;20780;-77
2022/10/27 04:57:56;;;;;;;13.95;9.20;;;12.80;99.90;;;;;;5097379;27;20035;-76
2022/10/27 05:00:23;;;;;;;15.63;9.45;;;12.80;99.90;;;;;;5083819;28;20106;-77
2022/10/27 05:02:56;;;;;;;18.40;8.90;;;12.80;99.90;;;;;;5102329;28;20028;-77
2022/10/27 05:05:23;;;;;;;17.90;9.02;;;12.80;99.90;;;;;;5103474;28;20074;-78
2022/10/27 05:08:02;;;;;;;12.13;8.38;;;12.80;99.90;;;;;;5095220;27;20020;-77
2022/10/27 05:10:29;;;;;;;13.55;8.63;;;12.70;99.90;;;;;;5067514;28;20020;-77
2022/10/27 05:12:55;;;;;;;14.65;9.07;;;12.70;99.90;;;;;;5085173;28;20100;-77
2022/10/27 05:15:21;;;;;;;15.00;9.38;;;12.70;99.90;;;;;;5108129;27;20031;-77
2022/10/27 05:17:49;;;;;;;13.20;8.65;;;12.70;99.90;;;;;;5103736;27;20071;-78
2022/10/27 05:20:18;;;;;;;15.02;9.25;;;12.70;99.90;;;;;;5084204;28;20111;-77
2022/10/27 05:22:44;;;;;;;14.77;9.00;;;12.70;99.90;;;;;;5083649;28;20032;-78
2022/10/27 05:25:10;;;;;;;15.80;8.82;;;12.70;99.90;;;;;;5092083;28;20527;-77
2022/10/27 05:27:37;;;;;;;12.93;8.60;;;12.70;99.90;;;;;;5067656;28;20034;-77
2022/10/27 05:30:04;;;;;;;13.00;8.50;;;12.70;99.90;;;;;;5087560;28;20023;-77
2022/10/27 05:32:32;;;;;;;11.50;8.40;;;12.70;99.90;;;;;;5103320;28;20503;-78
2022/10/27 05:34:57;;;;;;;12.18;8.40;;;12.70;99.90;;;;;;5097224;27;20046;-77
2022/10/27 05:37:23;;;;;;;14.65;8.40;;;12.60;99.90;;;;;;5094911;27;20020;-77
2022/10/27 05:39:49;;;;;;;14.45;9.00;;;12.60;99.90;;;;;;5079565;28;20103;-79
2022/10/27 05:42:14;;;;;;;15.52;9.88;;;12.60;99.90;;;;;;5086080;28;20038;-77
2022/10/27 05:44:40;;;;;;;19.23;9.57;;;12.60;99.90;;;;;;5100728;27;20030;-80
2022/10/27 05:47:09;;;;;;;16.85;9.65;;;12.60;99.90;;;;;;5099038;27;20442;-78
2022/10/27 05:49:34;;;;;;;17.05;9.55;;;12.60;99.90;;;;;;5082095;28;20028;-80
2022/10/27 05:52:00;;;;;;;15.13;8.75;;;12.60;99.90;;;;;;5069945;28;20026;-78
2022/10/27 05:54:26;;;;;;;14.90;9.60;;;12.60;99.90;;;;;;5101479;28;20053;-74
2022/10/27 05:56:51;;;;;;;18.73;9.15;;;12.60;99.90;;;;;;5090045;28;20036;-74
2022/10/27 05:59:19;;;;;;;15.52;9.65;;;12.60;99.90;;;;;;5079219;28;20039;-73
2022/10/27 06:01:45;;;;;;;15.65;8.95;;;12.60;99.90;;;;;;5100652;28;20070;-73
2022/10/27 06:04:10;;;;;;;17.08;10.10;;;12.60;99.90;;;;;;5092946;28;20064;-73
2022/10/27 06:06:36;;;;;;;15.80;9.73;;;12.60;99.90;;;;;;5087868;27;20394;-72
2022/10/27 06:09:01;;;;;;;17.42;10.13;;;12.60;99.90;;;;;;5089630;27;20472;-72
2022/10/27 06:11:27;;;;;;;13.90;9.30;;;12.60;99.90;;;;;;5100163;27;20551;-73
2022/10/27 06:13:53;;;;;;;17.00;9.60;;;12.60;99.90;;;;;;5089041;28;20031;-73
2022/10/27 06:16:19;;;;;;;22.90;10.73;;;12.60;99.90;;;;;;5081115;28;20107;-75
2022/10/27 06:18:45;;;;;;;19.05;10.10;;;12.60;99.90;;;;;;5096554;28;20031;-76
2022/10/27 06:21:10;;;;;;;15.32;10.18;;;12.60;99.90;;;;;;5084812;28;20050;-75
2022/10/27 06:23:36;;;;;;;16.23;9.07;;;12.60;99.90;;;;;;5099661;27;20048;-74
2022/10/27 06:26:02;;;;;;;14.30;9.40;;;12.60;99.90;;;;;;5091809;27;20031;-73
2022/10/27 06:28:28;;;;;;;13.65;9.35;;;12.60;99.90;;;;;;5091586;28;20158;-75
2022/10/27 06:30:54;;;;;;;13.52;8.98;;;12.60;99.90;;;;;;5093180;28;20034;-75
2022/10/27 06:33:20;;;;;;;15.30;9.93;;;12.60;99.90;;;;;;5086024;28;20032;-75
2022/10/27 06:35:46;;;;;;;16.00;9.45;;;12.60;99.90;;;;;;5093398;28;20030;-77
2022/10/27 06:38:15;;;;;;;13.43;9.10;;;12.60;99.90;;;;;;5092575;27;20501;-74
2022/10/27 06:40:44;;;;;;;14.63;8.82;;;12.60;99.90;;;;;;5105923;27;20038;-75
2022/10/27 06:43:11;;;;;;;14.02;9.48;;;12.60;99.90;;;;;;5107646;27;20268;-75
2022/10/27 06:45:37;;;;;;;14.52;10.15;;;12.60;99.90;;;;;;5069499;28;20031;-74
2022/10/27 06:48:05;;;;;;;14.52;8.80;;;12.60;99.90;;;;;;5086440;27;20644;-75
2022/10/27 06:50:30;;;;;;;14.13;9.50;;;12.60;99.90;;;;;;5096167;27;20080;-74
2022/10/27 06:52:57;;;;;;;15.02;9.20;;;12.70;99.90;;;;;;5109747;27;20031;-76
2022/10/27 06:55:23;;;;;;;15.10;9.10;;;13.10;99.90;;;;;;5106468;27;20440;-75
2022/10/27 06:57:49;;;;;;;13.15;9.45;;;13.00;99.90;;;;;;5095596;27;20035;-72
2022/10/27 07:00:18;;;;;;;15.07;9.95;;;12.90;99.90;;;;;;5103777;27;20488;-73
2022/10/27 07:02:44;;;;;;;15.20;9.15;;;12.80;99.90;;;;;;5097926;27;20126;-73
2022/10/27 07:05:09;;;;;;;16.58;9.68;;;12.80;99.90;;;;;;5085909;28;20599;-73
2022/10/27 07:07:36;;;;;;;23.88;11.40;;;12.80;99.90;;;;;;5088028;28;20047;-73
2022/10/27 07:10:03;;;;;;;19.17;10.15;;;12.80;99.90;;;;;;5097846;27;20383;-75
2022/10/27 07:12:28;;;;;;;17.05;9.70;;;12.80;99.90;;;;;;5065043;28;20020;-75
2022/10/27 07:14:54;;;;;;;16.20;10.45;;;12.80;99.90;;;;;;5082602;28;20463;-75
2022/10/27 07:17:20;;;;;;;14.77;9.18;;;12.80;99.90;;;;;;5086638;28;20020;-76
2022/10/27 07:19:46;;;;;;;18.45;9.80;;;12.80;99.90;;;;;;5100535;28;20024;-76
2022/10/27 07:22:12;;;;;;;14.05;8.95;;;12.80;99.90;;;;;;5108099;27;20023;-74
2022/10/27 07:24:38;;;;;;;16.20;9.60;;;12.80;99.90;;;;;;5096394;28;20373;-76
2022/10/27 07:27:03;;;;;;;16.90;10.93;;;12.80;99.90;;;;;;5104231;27;20123;-75
2022/10/27 07:29:29;;;;;;;15.48;10.45;;;12.80;99.90;;;;;;5084778;28;20028;-75
2022/10/27 07:31:55;;;;;;;17.23;10.15;;;12.90;99.90;;;;;;5100428;28;20031;-76
2022/10/27 07:34:21;;;;;;;18.27;10.20;;;12.90;99.90;;;;;;5082079;28;20495;-77
2022/10/27 07:36:47;;;;;;;20.52;9.88;;;12.90;99.90;;;;;;5081401;28;20084;-75
2022/10/27 07:39:12;;;;;;;16.38;9.88;;;12.90;99.90;;;;;;5096606;28;20341;-75
2022/10/27 07:41:38;;;;;;;14.85;8.48;;;12.90;99.90;;;;;;5082775;28;20024;-76
2022/10/27 07:44:04;;;;;;;15.20;9.25;;;12.90;99.90;;;;;;5103580;28;20043;-76
2022/10/27 07:46:30;;;;;;;12.43;8.43;;;13.00;99.90;;;;;;5078224;27;20036;-75
2022/10/27 07:48:55;;;;;;;19.13;13.32;;;13.10;99.90;;;;;;5102032;28;20024;-76
2022/10/27 07:51:21;;;;;;;19.40;11.05;;;13.10;99.90;;;;;;5097338;28;20027;-75
2022/10/27 07:53:49;;;;;;;18.30;10.55;;;13.10;99.90;;;;;;5096947;28;20142;-75
2022/10/27 07:56:16;;;;;;;23.48;10.07;;;13.20;99.90;;;;;;5103382;28;20032;-76
2022/10/27 07:58:42;;;;;;;16.98;10.50;;;13.20;99.90;;;;;;5089933;28;20031;-75
2022/10/27 08:01:08;;;;;;;20.33;10.18;;;13.20;99.90;;;;;;5101734;28;20028;-75
2022/10/27 08:03:34;;;;;;;15.27;9.75;;;13.30;99.90;;;;;;5102755;27;20102;-78
2022/10/27 08:06:04;;;;;;;16.65;10.48;;;13.20;99.90;;;;;;5103449;28;20074;-75
2022/10/27 08:08:30;;;;;;;14.15;9.32;;;13.20;99.90;;;;;;5107347;28;20051;-74
2022/10/27 08:10:56;;;;;;;23.10;10.95;;;13.30;99.90;;;;;;5084862;27;20020;-75
2022/10/27 08:13:22;;;;;;;18.48;10.10;;;13.30;99.90;;;;;;5100436;27;20035;-76
2022/10/27 08:15:47;;;;;;;16.65;10.20;;;13.30;99.90;;;;;;5083721;27;20433;-75
2022/10/27 08:18:13;;;;;;;21.45;10.75;;;13.30;99.90;;;;;;5104300;27;20038;-76
2022/10/27 08:20:42;;;;;;;19.02;9.48;;;13.40;99.90;;;;;;5102353;27;20023;-75
2022/10/27 08:23:13;;;;;;;17.75;9.52;;;13.50;99.90;;;;;;5093960;28;20024;-76
2022/10/27 08:25:39;;;;;;;;;;;13.60;99.90;;;;;;5101416;28;20135;-75
2022/10/27 08:28:05;;;;;;;20.17;10.48;;;13.60;99.90;;;;;;5103918;27;19963;-75
2022/10/27 08:30:33;;;;;;;14.60;9.07;;;13.70;99.90;;;;;;5100499;27;20030;-76
2022/10/27 08:33:01;;;;;;;16.88;9.82;;;13.80;99.90;;;;;;5096193;28;20028;-75
2022/10/27 08:35:28;;;;;;;14.38;9.00;;;13.90;99.90;;;;;;5098338;28;20051;-76
2022/10/27 08:38:03;;;;;;;12.30;8.18;;;13.90;99.90;;;;;;5087584;28;20020;-76
2022/10/27 08:40:40;;;;;;;16.27;9.48;;;14.00;99.90;;;;;;5101601;28;20100;-75
2022/10/27 08:43:40;;;;;;;13.77;9.43;;;14.00;99.90;;;;;;5082414;28;20103;-76
2022/10/27 08:46:25;;;;;;;15.60;10.25;;;14.10;99.90;;;;;;5085289;28;20070;-76
2022/10/27 08:48:57;;;;;;;17.08;9.65;;;14.10;99.90;;;;;;5075573;28;20088;-77
2022/10/27 08:51:25;;;;;;;13.02;9.20;;;14.10;99.90;;;;;;5104260;28;20582;-76
2022/10/27 08:53:54;;;;;;;16.15;9.55;;;14.10;99.90;;;;;;5079080;28;20020;-75
2022/10/27 08:56:22;;;;;;;23.38;11.27;;;14.10;99.90;;;;;;5102352;27;20032;-76
2022/10/27 08:58:48;;;;;;;18.55;11.07;;;14.20;99.90;;;;;;5099969;27;20019;-76
2022/10/27 09:01:35;;;;;;;16.67;8.88;;;14.20;99.90;;;;;;5103510;27;20127;-76
2022/10/27 09:04:15;;;;;;;15.98;10.88;;;14.20;99.90;;;;;;5106419;27;20066;-76
2022/10/27 09:07:06;;;;;;;15.57;10.27;;;14.30;99.90;;;;;;5093871;27;20116;-76
2022/10/27 09:09:56;;;;;;;16.00;9.98;;;14.40;99.90;;;;;;5098492;28;20024;-76
2022/10/27 09:12:47;;;;;;;14.43;8.48;;;14.40;99.90;;;;;;5090082;28;20114;-76
2022/10/27 09:15:35;;;;;;;16.90;8.70;;;14.50;99.90;;;;;;5104355;27;20616;-76
2022/10/27 09:18:10;;;;;;;14.25;8.82;;;14.50;99.90;;;;;;5099802;27;20035;-77
2022/10/27 09:20:51;;;;;;;16.40;9.20;;;14.50;99.90;;;;;;5094505;28;20556;-76
2022/10/27 09:23:20;;;;;;;16.48;8.98;;;14.60;99.90;;;;;;5085634;28;20028;-77
2022/10/27 09:25:51;;;;;;;13.90;9.23;;;14.60;99.90;;;;;;5101895;27;20394;-76
2022/10/27 09:28:33;;;;;;;13.18;8.20;;;14.70;99.90;;;;;;5094908;28;20036;-77
2022/10/27 09:31:01;;;;;;;13.23;7.90;;;14.70;99.90;;;;;;5103646;27;20665;-75
2022/10/27 09:33:31;;;;;;;13.07;8.52;;;14.80;99.90;;;;;;5102707;27;20032;-76
2022/10/27 09:35:57;;;;;;;15.23;8.73;;;14.90;99.90;;;;;;5086003;27;20626;-77
2022/10/27 09:38:26;;;;;;;16.20;9.02;;;14.90;99.90;;;;;;5099809;27;20111;-76
2022/10/27 09:40:52;;;;;;;16.35;8.35;;;14.90;99.90;;;;;;5090285;28;20020;-76
2022/10/27 09:43:22;;;;;;;12.55;8.02;;;15.00;99.90;;;;;;5100171;28;20028;-76
2022/10/27 09:46:13;;;;;;;19.08;9.18;;;15.10;99.90;;;;;;5099534;27;20058;-76
2022/10/27 09:48:39;;;;;;;13.63;8.05;;;15.20;99.90;;;;;;5109502;28;20069;-76
2022/10/27 09:51:21;;;;;;;15.40;7.60;;;15.40;99.90;;;;;;5108680;27;20027;-76
2022/10/27 09:53:51;;;;;;;12.07;7.18;;;15.50;99.90;;;;;;5097669;27;20033;-75
2022/10/27 09:56:31;;;;;;;8.40;6.38;;;15.60;99.90;;;;;;5102684;28;20062;-75
2022/10/27 09:59:03;;;;;;;14.53;8.00;;;15.60;99.90;;;;;;5086911;27;20525;-76
2022/10/27 10:01:38;;;;;;;8.75;6.43;;;15.70;99.90;;;;;;5099544;27;20093;-76
2022/10/27 10:04:16;;;;;;;13.25;6.50;;;15.70;99.90;;;;;;5110822;27;20039;-79
2022/10/27 10:06:42;;;;;;;14.00;6.90;;;15.90;99.90;;;;;;5073223;27;20115;-76
2022/10/27 10:09:28;;;;;;;9.02;6.22;;;15.90;99.90;;;;;;5088662;28;20053;-76
2022/10/27 10:12:25;;;;;;;11.60;5.88;;;16.00;99.90;;;;;;5104570;27;20027;-77
2022/10/27 10:15:10;;;;;;;11.98;6.50;;;16.10;99.90;;;;;;5101539;27;20007;-76
2022/10/27 10:17:39;;;;;;;8.75;6.40;;;16.10;99.90;;;;;;5088132;28;20015;-76
2022/10/27 10:20:06;;;;;;;14.27;6.68;;;16.10;99.90;;;;;;5107590;27;20118;-76
2022/10/27 10:22:34;;;;;;;13.30;7.03;;;16.20;99.90;;;;;;5097554;28;20024;-75
2022/10/27 10:25:15;;;;;;;15.30;6.53;;;16.10;99.90;;;;;;5093334;27;20560;-76
2022/10/27 10:27:54;;;;;;;10.05;5.85;;;16.20;99.90;;;;;;5091083;27;20433;-76
2022/10/27 10:30:20;;;;;;;11.13;5.75;;;16.20;99.90;;;;;;5087336;28;20057;-76
2022/10/27 10:32:49;;;;;;;12.85;6.25;;;16.20;99.90;;;;;;5105826;27;20031;-77
2022/10/27 10:35:49;;;;;;;11.73;6.32;;;16.20;99.90;;;;;;5070174;28;20370;-75
2022/10/27 10:38:26;;;;;;;9.23;5.20;;;16.30;99.90;;;;;;5101489;27;20027;-76
2022/10/27 10:41:05;;;;;;;11.95;5.65;;;16.30;99.90;;;;;;5094922;28;20032;-75
2022/10/27 10:43:31;;;;;;;11.77;5.50;;;16.40;99.90;;;;;;5076289;28;20046;-76
2022/10/27 10:45:58;;;;;;;12.38;5.20;;;16.60;99.90;;;;;;5090217;28;20024;-76
2022/10/27 10:48:45;;;;;;;8.00;4.68;;;16.70;99.90;;;;;;5097080;27;20123;-76
2022/10/27 10:51:22;;;;;;;9.60;5.10;;;16.80;99.90;;;;;;5089796;28;20511;-77
2022/10/27 10:53:52;;;;;;;8.73;4.60;;;16.80;99.90;;;;;;5092756;28;20503;-76
2022/10/27 10:56:20;;;;;;;11.80;4.80;;;16.90;99.90;;;;;;5099747;28;20119;-76
2022/10/27 10:58:48;;;;;;;8.18;4.13;;;17.00;99.90;;;;;;5103502;27;20028;-76
2022/10/27 11:01:15;;;;;;;12.75;4.47;;;17.10;99.90;;;;;;5098264;27;20059;-76
2022/10/27 11:03:46;;;;;;;8.82;3.58;;;17.00;99.90;;;;;;5100717;28;20062;-77
2022/10/27 11:06:20;;;;;;;7.45;3.70;;;17.10;99.90;;;;;;5089528;27;20034;-77
2022/10/27 11:09:01;;;;;;;10.32;4.45;;;17.20;99.90;;;;;;5070109;28;20513;-76
2022/10/27 11:11:33;;;;;;;6.03;3.47;;;17.20;99.90;;;;;;5099193;27;20031;-78
2022/10/27 11:14:25;;;;;;;9.93;3.78;;;17.20;99.90;;;;;;5085343;27;20472;-77
2022/10/27 11:16:57;;;;;;;7.10;4.13;;;17.20;99.90;;;;;;5084974;28;20039;-77
2022/10/27 11:19:26;;;;;;;6.72;3.55;;;17.20;99.90;;;;;;5092613;28;20462;-77
2022/10/27 11:22:06;;;;;;;10.35;3.95;;;17.20;99.90;;;;;;5091769;28;20027;-77
2022/10/27 11:24:51;;;;;;;7.05;3.53;;;17.30;99.90;;;;;;5094840;28;20032;-76
2022/10/27 11:27:25;;;;;;;9.45;3.55;;;17.30;99.90;;;;;;5082159;28;20020;-75
2022/10/27 11:30:12;;;;;;;6.43;3.58;;;17.30;99.90;;;;;;5072866;28;20428;-76
2022/10/27 11:33:10;;;;;;;8.27;4.28;;;17.30;99.90;;;;;;5070817;28;20088;-77
2022/10/27 11:35:54;;;;;;;6.82;3.42;;;17.40;99.90;;;;;;5079273;28;20026;-77
2022/10/27 11:38:26;;;;;;;9.43;3.85;;;17.30;99.90;;;;;;5106444;28;20027;-76
2022/10/27 11:41:01;;;;;;;8.52;3.72;;;17.40;99.90;;;;;;5101617;28;20057;-75
2022/10/27 11:44:12;;;;;;;9.77;3.95;;;17.40;99.90;;;;;;5089609;28;20051;-75
2022/10/27 11:46:42;;;;;;;8.70;3.28;;;17.40;99.90;;;;;;5042868;28;20596;-76
2022/10/27 11:49:23;;;;;;;8.65;4.18;;;17.40;99.90;;;;;;5100859;27;20156;-76
2022/10/27 11:52:02;;;;;;;8.70;4.13;;;17.40;99.90;;;;;;5110251;27;20069;-76
2022/10/27 11:54:30;;;;;;;10.63;4.18;;;17.50;99.90;;;;;;5105853;28;20499;-77
2022/10/27 11:57:04;;;;;;;7.28;3.90;;;17.50;99.90;;;;;;5090545;28;20062;-75
2022/10/27 11:59:45;;;;;;;7.28;3.25;;;17.40;99.90;;;;;;5103715;28;20963;-77
2022/10/27 12:02:38;;;;;;;7.68;3.40;;;17.50;99.90;;;;;;5116568;27;20028;-79
2022/10/27 12:05:18;;;;;;;7.90;3.95;;;17.60;99.90;;;;;;5091826;27;20039;-77
2022/10/27 12:08:15;;;;;;;14.40;3.97;;;17.70;99.90;;;;;;5106458;27;20020;-77
2022/10/27 12:10:52;;;;;;;7.10;3.17;;;17.70;99.90;;;;;;5093182;28;20028;-77
2022/10/27 12:13:24;;;;;;;8.20;3.30;;;17.70;99.90;;;;;;5099506;28;20027;-77
2022/10/27 12:15:59;;;;;;;9.70;3.38;;;17.80;99.90;;;;;;5090120;28;20028;-76
2022/10/27 12:18:46;;;;;;;8.68;2.95;;;17.80;99.90;;;;;;5095053;28;20031;-77
2022/10/27 12:21:20;;;;;;;7.03;3.28;;;17.90;99.90;;;;;;5102718;28;20028;-77
2022/10/27 12:24:00;;;;;;;7.80;3.78;;;17.90;99.90;;;;;;5095886;28;20032;-75
2022/10/27 12:26:27;;;;;;;5.20;3.05;;;18.00;99.90;;;;;;5106737;28;20555;-76
2022/10/27 12:28:55;;;;;;;15.88;3.60;;;18.10;99.90;;;;;;5091806;28;20016;-76
2022/10/27 12:31:25;;;;;;;8.57;2.83;;;18.10;99.90;;;;;;5100067;27;20027;-76
2022/10/27 12:33:54;;;;;;;6.03;2.67;;;18.20;99.90;;;;;;5104641;27;20020;-76
2022/10/27 12:36:41;;;;;;;11.70;3.28;;;18.30;99.90;;;;;;5088619;28;20096;-78
2022/10/27 12:39:47;;;;;;;6.72;3.78;;;18.40;99.90;;;;;;5098671;28;20644;-77
2022/10/27 12:42:28;;;;;;;6.70;2.97;;;18.40;99.90;;;;;;5091551;27;20032;-76
2022/10/27 12:45:06;;;;;;;;;;;18.40;99.90;;;;;;5113392;27;20035;-77
2022/10/27 12:47:46;;;;;;;6.97;3.15;;;18.40;99.90;;;;;;5090352;28;19996;-76
2022/10/27 12:50:38;;;;;;;6.78;2.60;;;18.30;99.90;;;;;;5109206;27;20578;-76
2022/10/27 12:53:17;;;;;;;6.03;2.58;;;18.40;99.90;;;;;;5086135;28;20027;-76
2022/10/27 12:56:16;;;;;;;7.47;3.05;;;18.40;99.90;;;;;;5090680;28;20031;-76
2022/10/27 12:59:03;;;;;;;4.95;2.50;;;18.40;99.90;;;;;;5114484;27;20047;-76